METAR
Output Produced by Metar
found at http://aviationweather.gov/adds/metars/
 

Data at: 0855 UTC 20 Oct 2019

METAR for:WIII (Jakarta Intl, --, ID)
Text:WIII 200830Z 04011G21KT 9999 FEW021 33/21 Q1008 NOSIG
Temperature: 33.0°C ( 91°F)
Dewpoint: 21.0°C ( 70°F) [RH = 49%]
Pressure (altimeter):29.76 inches Hg (1008.0 mb)
Winds:from the NE (40 degrees) at 13 MPH (11 knots; 5.7 m/s) gusting to 24 MPH (21 knots; 10.8 m/s)
Visibility:6 or more sm (10+ km)
Ceiling:at least 12,000 feet AGL
Clouds: few clouds at 2100 feet AGL